Time;durP1;ratioP1;P1;durP2;ratioP2;P2;SDS_P1;SDS_P2;PMS_P1;PMS_P2;Temp;Humidity;BMP_temperature;BMP_pressure;BME280_temperature;BME280_humidity;BME280_pressure;Samples;Min_cycle;Max_cycle;Signal;HPM_P1;HPM_P2
2023/06/06 00:01:50;;;;;;;8.45;4.72;;;16.40;66.10;;;;;;5072657;28;20031;-72
2023/06/06 00:04:15;;;;;;;7.15;5.47;;;16.40;66.40;;;;;;5072553;28;20120;-72
2023/06/06 00:06:44;;;;;;;7.38;4.85;;;16.30;66.80;;;;;;5071478;28;20021;-72
2023/06/06 00:09:10;;;;;;;6.57;4.90;;;16.30;67.80;;;;;;5072635;28;20499;-72
2023/06/06 00:11:36;;;;;;;8.30;5.43;;;16.30;67.80;;;;;;5072506;28;20047;-72
2023/06/06 00:14:01;;;;;;;5.20;4.50;;;16.30;68.00;;;;;;5072705;28;20025;-72
2023/06/06 00:16:27;;;;;;;9.77;4.75;;;16.40;67.60;;;;;;5071243;28;20534;-72
2023/06/06 00:18:55;;;;;;;6.05;4.57;;;16.40;67.40;;;;;;5075414;28;20032;-72
2023/06/06 00:21:21;;;;;;;5.20;4.70;;;16.40;67.60;;;;;;5073547;28;20016;-72
2023/06/06 00:23:47;;;;;;;10.63;5.05;;;16.50;67.50;;;;;;5073216;28;20423;-72
2023/06/06 00:26:12;;;;;;;6.03;4.88;;;16.50;67.60;;;;;;5072586;28;20025;-72
2023/06/06 00:28:38;;;;;;;5.60;4.55;;;16.50;67.60;;;;;;5072529;28;20047;-73
2023/06/06 00:31:04;;;;;;;5.22;4.72;;;16.60;67.40;;;;;;5072617;28;20025;-72
2023/06/06 00:33:29;;;;;;;5.32;4.13;;;16.70;67.30;;;;;;5071167;28;20025;-72
2023/06/06 00:35:55;;;;;;;5.35;4.85;;;16.60;67.10;;;;;;5072473;28;20028;-72
2023/06/06 00:38:20;;;;;;;4.97;4.40;;;16.60;67.20;;;;;;5072253;28;20048;-72
2023/06/06 00:40:46;;;;;;;4.32;3.92;;;16.60;67.40;;;;;;5072343;28;20044;-72
2023/06/06 00:43:11;;;;;;;5.03;4.07;;;16.60;67.20;;;;;;5072448;28;20538;-72
2023/06/06 00:45:37;;;;;;;5.30;3.90;;;16.60;67.00;;;;;;5072305;28;20048;-72
2023/06/06 00:48:03;;;;;;;4.22;3.83;;;16.60;66.90;;;;;;5072264;28;20025;-72
2023/06/06 00:50:30;;;;;;;5.22;4.40;;;16.70;66.80;;;;;;5070889;28;20040;-72
2023/06/06 00:52:56;;;;;;;4.75;4.05;;;16.70;66.60;;;;;;5072326;28;20062;-72
2023/06/06 00:55:23;;;;;;;4.05;3.65;;;16.70;66.40;;;;;;5072373;28;20392;-72
2023/06/06 00:57:51;;;;;;;4.45;4.05;;;16.80;66.40;;;;;;5072274;28;20020;-73
2023/06/06 01:00:17;;;;;;;5.47;4.50;;;16.70;66.40;;;;;;5072035;28;20039;-72
2023/06/06 01:02:43;;;;;;;4.60;4.10;;;16.70;66.50;;;;;;5072509;28;20385;-72
2023/06/06 01:05:09;;;;;;;5.97;3.80;;;16.70;66.30;;;;;;5075792;28;20024;-71
2023/06/06 01:07:36;;;;;;;6.70;4.10;;;16.70;66.30;;;;;;5075684;28;20021;-72
2023/06/06 01:10:07;;;;;;;6.00;4.32;;;16.70;66.20;;;;;;5075709;28;20020;-72
2023/06/06 01:12:47;;;;;;;5.90;4.10;;;16.70;66.10;;;;;;5075503;28;20039;-72
2023/06/06 01:15:35;;;;;;;5.38;4.10;;;16.60;66.10;;;;;;5075779;28;20377;-72
2023/06/06 01:18:02;;;;;;;5.10;4.60;;;16.50;66.50;;;;;;5075173;28;20490;-72
2023/06/06 01:20:30;;;;;;;8.05;4.25;;;16.50;66.80;;;;;;5075338;28;20083;-73
2023/06/06 01:22:56;;;;;;;4.30;3.83;;;16.50;66.80;;;;;;5075105;28;20017;-73
2023/06/06 01:25:25;;;;;;;6.10;4.00;;;16.40;66.70;;;;;;5075299;28;20025;-73
2023/06/06 01:27:53;;;;;;;7.60;4.30;;;16.40;66.70;;;;;;5075097;28;20021;-72
2023/06/06 01:30:22;;;;;;;4.57;4.05;;;16.30;66.90;;;;;;5075318;28;20021;-72
2023/06/06 01:33:22;;;;;;;4.78;4.28;;;16.20;67.00;;;;;;5075107;28;20376;-72
2023/06/06 01:35:56;;;;;;;5.88;3.88;;;16.20;67.40;;;;;;5069215;28;20154;-73
2023/06/06 01:38:30;;;;;;;5.30;3.95;;;16.10;67.70;;;;;;5074907;28;20431;-73
2023/06/06 01:40:58;;;;;;;7.10;4.43;;;16.10;67.90;;;;;;5074950;28;20194;-72
2023/06/06 01:43:26;;;;;;;5.70;4.22;;;16.00;68.00;;;;;;5074973;28;20058;-72
2023/06/06 01:45:53;;;;;;;4.60;3.92;;;16.00;68.10;;;;;;5075008;28;20511;-72
2023/06/06 01:48:19;;;;;;;4.00;3.70;;;15.90;68.30;;;;;;5074844;28;20021;-72
2023/06/06 01:50:45;;;;;;;5.18;3.95;;;15.90;68.50;;;;;;5075069;28;20032;-72
2023/06/06 01:53:11;;;;;;;5.00;4.13;;;15.80;68.80;;;;;;5073634;28;20473;-72
2023/06/06 01:55:36;;;;;;;4.30;3.90;;;15.80;68.90;;;;;;5074912;28;20032;-72
2023/06/06 01:58:03;;;;;;;5.55;4.45;;;15.70;69.00;;;;;;5074853;28;20481;-72
2023/06/06 02:00:29;;;;;;;6.82;4.60;;;15.70;69.10;;;;;;5074743;28;20048;-72
2023/06/06 02:02:54;;;;;;;5.78;4.55;;;15.70;69.40;;;;;;5074656;28;20017;-72
2023/06/06 02:05:20;;;;;;;5.78;4.38;;;15.60;69.70;;;;;;5074667;28;20028;-72
2023/06/06 02:07:49;;;;;;;4.82;4.38;;;15.60;69.80;;;;;;5074550;28;20020;-72
2023/06/06 02:10:15;;;;;;;4.90;4.40;;;15.50;69.80;;;;;;5074504;28;20472;-72
2023/06/06 02:12:40;;;;;;;5.05;4.55;;;15.60;69.60;;;;;;5074529;28;20020;-72
2023/06/06 02:15:07;;;;;;;4.35;3.95;;;15.50;69.50;;;;;;5074335;28;20107;-72
2023/06/06 02:17:33;;;;;;;4.32;4.00;;;15.50;69.70;;;;;;5074365;28;20024;-72
2023/06/06 02:19:59;;;;;;;4.75;4.03;;;15.40;69.80;;;;;;5074389;28;20039;-72
2023/06/06 02:22:25;;;;;;;6.20;4.68;;;15.40;69.80;;;;;;5074129;28;20465;-72
2023/06/06 02:24:52;;;;;;;5.47;4.82;;;15.30;70.50;;;;;;5074324;28;20068;-72
2023/06/06 02:27:19;;;;;;;10.38;4.70;;;15.20;70.70;;;;;;5074135;28;20023;-72
2023/06/06 02:29:45;;;;;;;4.75;4.35;;;15.10;70.90;;;;;;5074107;28;20024;-72
2023/06/06 02:32:11;;;;;;;6.45;4.50;;;15.10;71.20;;;;;;5074091;28;20020;-72
2023/06/06 02:34:37;;;;;;;5.45;4.90;;;15.10;71.60;;;;;;5073875;28;20040;-72
2023/06/06 02:37:06;;;;;;;4.30;3.90;;;15.00;71.90;;;;;;5073928;28;20024;-72
2023/06/06 02:39:33;;;;;;;4.18;3.78;;;14.90;72.00;;;;;;5073745;28;20066;-72
2023/06/06 02:41:58;;;;;;;8.23;4.32;;;14.90;71.90;;;;;;5073848;28;20036;-72
2023/06/06 02:44:25;;;;;;;6.90;4.18;;;14.90;72.10;;;;;;5073888;28;20100;-72
2023/06/06 02:46:52;;;;;;;4.22;3.83;;;14.90;71.90;;;;;;5073770;28;20029;-72
2023/06/06 02:49:17;;;;;;;5.32;3.80;;;15.00;71.70;;;;;;5073716;28;20021;-72
2023/06/06 02:51:43;;;;;;;4.50;3.80;;;15.00;71.50;;;;;;5073690;28;20214;-72
2023/06/06 02:54:08;;;;;;;6.05;3.88;;;15.00;71.40;;;;;;5073581;28;20028;-72
2023/06/06 02:56:34;;;;;;;6.47;4.20;;;14.90;71.70;;;;;;5073735;28;20058;-72
2023/06/06 02:59:00;;;;;;;4.18;3.78;;;14.80;71.90;;;;;;5073409;28;20025;-72
2023/06/06 03:01:25;;;;;;;4.35;3.95;;;14.80;71.80;;;;;;5072233;28;20020;-72
2023/06/06 03:03:51;;;;;;;4.07;3.67;;;14.80;72.10;;;;;;5073485;28;20050;-72
2023/06/06 03:06:17;;;;;;;4.97;4.03;;;14.70;72.40;;;;;;5073595;28;20028;-72
2023/06/06 03:08:46;;;;;;;4.97;4.47;;;14.70;72.50;;;;;;5073356;28;20081;-72
2023/06/06 03:11:11;;;;;;;5.43;3.92;;;14.60;72.70;;;;;;5073302;28;20496;-72
2023/06/06 03:13:37;;;;;;;5.07;3.67;;;14.60;72.90;;;;;;5073243;28;20067;-72
2023/06/06 03:16:04;;;;;;;5.30;4.35;;;14.50;73.00;;;;;;5073277;28;20024;-72
2023/06/06 03:18:32;;;;;;;4.40;3.80;;;14.50;73.00;;;;;;5073024;28;20050;-72
2023/06/06 03:20:58;;;;;;;3.95;3.55;;;14.60;72.60;;;;;;5073151;28;20044;-72
2023/06/06 03:23:23;;;;;;;7.05;3.78;;;14.60;72.40;;;;;;5073178;28;20021;-72
2023/06/06 03:25:51;;;;;;;4.05;3.58;;;14.60;72.30;;;;;;5072661;28;20032;-72
2023/06/06 03:28:17;;;;;;;3.80;3.50;;;14.60;72.30;;;;;;5073028;28;20484;-72
2023/06/06 03:30:45;;;;;;;4.18;3.78;;;14.60;72.40;;;;;;5071855;28;20560;-72
2023/06/06 03:33:11;;;;;;;3.50;3.20;;;14.60;72.40;;;;;;5072984;28;20465;-73
2023/06/06 03:35:37;;;;;;;4.03;3.63;;;14.50;72.90;;;;;;5072968;28;20029;-72
2023/06/06 03:38:03;;;;;;;6.32;3.50;;;14.60;72.60;;;;;;5072688;28;20484;-72
2023/06/06 03:40:28;;;;;;;5.25;3.67;;;14.50;72.60;;;;;;5072734;28;20112;-72
2023/06/06 03:42:54;;;;;;;3.95;3.55;;;14.40;72.90;;;;;;5072882;28;20138;-72
2023/06/06 03:45:21;;;;;;;3.85;3.42;;;14.30;73.40;;;;;;5072829;28;20028;-73
2023/06/06 03:47:47;;;;;;;4.88;3.88;;;14.20;73.60;;;;;;5072780;28;20040;-72
2023/06/06 03:50:13;;;;;;;6.45;3.70;;;14.10;73.90;;;;;;5072658;28;20024;-72
2023/06/06 03:52:40;;;;;;;3.92;3.53;;;14.10;74.00;;;;;;5072464;28;20031;-72
2023/06/06 03:55:07;;;;;;;3.63;3.33;;;14.00;74.20;;;;;;5072417;28;20068;-72
2023/06/06 03:57:33;;;;;;;4.60;3.22;;;14.10;73.80;;;;;;5072475;28;20017;-72
2023/06/06 03:59:58;;;;;;;3.95;3.55;;;14.00;73.90;;;;;;5071272;28;20036;-72
2023/06/06 04:02:24;;;;;;;4.07;3.70;;;14.00;74.00;;;;;;5072488;28;20025;-72
2023/06/06 04:04:50;;;;;;;4.32;3.38;;;14.00;74.00;;;;;;5072670;28;20346;-72
2023/06/06 04:07:16;;;;;;;4.10;3.50;;;13.90;74.10;;;;;;5072434;28;20097;-72
2023/06/06 04:09:42;;;;;;;4.57;3.67;;;14.00;74.10;;;;;;5072482;28;20473;-72
2023/06/06 04:12:08;;;;;;;5.95;3.80;;;14.00;74.00;;;;;;5072638;28;20020;-72
2023/06/06 04:14:34;;;;;;;5.03;3.75;;;14.00;73.70;;;;;;5073052;28;20020;-73
2023/06/06 04:17:01;;;;;;;5.50;3.40;;;14.00;73.80;;;;;;5072902;28;20036;-72
2023/06/06 04:19:27;;;;;;;4.65;3.78;;;14.10;73.70;;;;;;5072632;28;20032;-73
2023/06/06 04:21:54;;;;;;;4.20;3.80;;;14.10;73.50;;;;;;5072440;28;20087;-72
2023/06/06 04:24:20;;;;;;;4.07;3.55;;;14.10;73.60;;;;;;5072185;28;20484;-72
2023/06/06 04:26:46;;;;;;;4.13;3.47;;;14.20;73.40;;;;;;5072481;28;20107;-72
2023/06/06 04:29:13;;;;;;;5.63;3.50;;;14.30;73.20;;;;;;5072313;28;20056;-72
2023/06/06 04:31:40;;;;;;;5.70;3.45;;;14.40;72.70;;;;;;5072204;28;20044;-72
2023/06/06 04:34:09;;;;;;;3.67;3.33;;;14.60;72.00;;;;;;5072397;28;20071;-72
2023/06/06 04:36:38;;;;;;;6.85;4.07;;;14.60;71.20;;;;;;5072325;28;20036;-72
2023/06/06 04:39:05;;;;;;;4.65;3.53;;;14.60;71.10;;;;;;5074475;28;20072;-71
2023/06/06 04:41:31;;;;;;;4.28;3.80;;;14.50;71.10;;;;;;5076131;28;20032;-72
2023/06/06 04:43:59;;;;;;;5.35;3.90;;;14.40;71.50;;;;;;5076129;28;20025;-72
2023/06/06 04:46:24;;;;;;;5.25;4.07;;;14.40;71.70;;;;;;5076031;28;20376;-71
2023/06/06 04:48:53;;;;;;;4.90;4.30;;;14.40;71.60;;;;;;5075974;28;20103;-72
2023/06/06 04:51:29;;;;;;;6.10;3.67;;;14.50;72.30;;;;;;5075917;28;20445;-71
2023/06/06 04:54:00;;;;;;;8.00;3.38;;;14.60;71.20;;;;;;5075934;28;20020;-71
2023/06/06 04:56:28;;;;;;;5.97;3.20;;;14.70;70.80;;;;;;5075763;28;20028;-71
2023/06/06 04:58:54;;;;;;;5.35;3.45;;;14.80;70.60;;;;;;5077575;28;20085;-72
2023/06/06 05:01:20;;;;;;;4.82;3.45;;;14.90;70.10;;;;;;5075854;28;20029;-71
2023/06/06 05:03:47;;;;;;;6.10;3.05;;;14.90;70.10;;;;;;5074408;28;20032;-72
2023/06/06 05:06:12;;;;;;;6.88;2.83;;;15.00;69.70;;;;;;5075709;28;20028;-72
2023/06/06 05:08:44;;;;;;;8.75;2.80;;;15.20;69.00;;;;;;5075388;28;20028;-72
2023/06/06 05:11:10;;;;;;;6.25;3.05;;;15.20;68.60;;;;;;5075597;28;20074;-72
2023/06/06 05:13:36;;;;;;;5.28;2.90;;;15.30;68.20;;;;;;5075603;28;20019;-72
2023/06/06 05:16:02;;;;;;;5.45;2.30;;;15.50;67.90;;;;;;5075442;28;20021;-72
2023/06/06 05:18:30;;;;;;;2.72;2.35;;;15.60;67.60;;;;;;5075347;28;20031;-72
2023/06/06 05:21:00;;;;;;;4.03;2.95;;;15.80;67.70;;;;;;5075361;28;20028;-71
2023/06/06 05:23:26;;;;;;;3.40;2.72;;;16.00;67.40;;;;;;5074062;28;20020;-72
2023/06/06 05:25:52;;;;;;;4.53;2.80;;;16.20;66.50;;;;;;5075154;28;20465;-72
2023/06/06 05:28:17;;;;;;;3.97;2.95;;;16.30;66.00;;;;;;5075139;28;20029;-72
2023/06/06 05:30:43;;;;;;;2.40;2.20;;;16.30;65.70;;;;;;5075215;28;20020;-73
2023/06/06 05:33:09;;;;;;;3.40;3.03;;;16.50;65.30;;;;;;5074954;28;20029;-73
2023/06/06 05:35:35;;;;;;;2.85;2.60;;;16.60;65.10;;;;;;5075007;28;20028;-73
2023/06/06 05:38:01;;;;;;;3.30;2.53;;;16.70;64.20;;;;;;5074663;28;20036;-73
2023/06/06 05:40:26;;;;;;;4.85;3.08;;;16.90;63.60;;;;;;5074741;28;20033;-72
2023/06/06 05:42:52;;;;;;;5.45;2.85;;;16.90;62.90;;;;;;5074829;28;20421;-72
2023/06/06 05:45:17;;;;;;;4.10;3.20;;;17.10;62.70;;;;;;5074730;28;20485;-71
2023/06/06 05:47:43;;;;;;;7.40;3.88;;;17.10;62.40;;;;;;5074602;28;20090;-72
2023/06/06 05:50:08;;;;;;;5.30;3.85;;;17.20;62.70;;;;;;5074183;28;20028;-71
2023/06/06 05:52:35;;;;;;;4.13;3.40;;;17.20;62.80;;;;;;5074554;28;20031;-72
2023/06/06 05:55:03;;;;;;;4.65;4.05;;;17.30;62.70;;;;;;5074557;28;20485;-71
2023/06/06 05:57:29;;;;;;;3.70;3.40;;;17.40;62.60;;;;;;5074452;28;20025;-72
2023/06/06 05:59:55;;;;;;;9.52;5.20;;;17.40;62.40;;;;;;5074342;28;20122;-72
2023/06/06 06:02:22;;;;;;;4.30;3.90;;;17.40;61.70;;;;;;5074309;28;20430;-72
2023/06/06 06:04:53;;;;;;;6.22;4.05;;;17.30;62.50;;;;;;5074361;28;20028;-73
2023/06/06 06:07:18;;;;;;;5.72;4.55;;;17.40;62.10;;;;;;5073015;28;20035;-73
2023/06/06 06:09:44;;;;;;;7.00;4.60;;;17.50;62.00;;;;;;5074318;28;20095;-73
2023/06/06 06:12:10;;;;;;;5.43;4.53;;;17.60;61.70;;;;;;5074319;28;20050;-73
2023/06/06 06:14:35;;;;;;;4.53;3.55;;;17.70;61.60;;;;;;5074130;28;20021;-73
2023/06/06 06:17:01;;;;;;;5.15;4.15;;;17.90;61.40;;;;;;5074094;28;20052;-73
2023/06/06 06:19:26;;;;;;;7.38;4.55;;;18.00;60.90;;;;;;5074259;28;20037;-73
2023/06/06 06:21:52;;;;;;;6.50;4.78;;;18.10;60.80;;;;;;5074031;28;20225;-73
2023/06/06 06:24:17;;;;;;;9.23;4.65;;;18.10;60.90;;;;;;5074118;28;20029;-73
2023/06/06 06:26:43;;;;;;;7.78;5.70;;;18.10;60.70;;;;;;5073822;28;20024;-72
2023/06/06 06:29:08;;;;;;;7.40;4.88;;;18.20;60.40;;;;;;5073815;28;20020;-72
2023/06/06 06:31:34;;;;;;;6.88;4.55;;;18.30;60.10;;;;;;5073895;28;20050;-72
2023/06/06 06:33:59;;;;;;;7.93;5.75;;;18.30;60.00;;;;;;5073874;28;20048;-72
2023/06/06 06:36:25;;;;;;;7.20;5.38;;;18.20;60.20;;;;;;5073876;28;20031;-72
2023/06/06 06:38:50;;;;;;;7.85;4.68;;;18.20;60.10;;;;;;5073591;28;20119;-72
2023/06/06 06:41:16;;;;;;;7.97;4.90;;;18.30;60.10;;;;;;5073800;28;20040;-72
2023/06/06 06:43:42;;;;;;;5.25;4.13;;;18.40;59.60;;;;;;5073599;28;20036;-72
2023/06/06 06:46:08;;;;;;;5.80;4.32;;;18.50;59.60;;;;;;5072242;28;20101;-73
2023/06/06 06:48:34;;;;;;;8.30;4.32;;;18.70;59.10;;;;;;5073621;28;20044;-72
2023/06/06 06:50:59;;;;;;;4.72;4.03;;;18.80;58.60;;;;;;5073636;28;20028;-73
2023/06/06 06:53:25;;;;;;;4.00;3.05;;;18.80;58.10;;;;;;5073510;28;20056;-72
2023/06/06 06:55:52;;;;;;;6.15;4.00;;;18.70;58.50;;;;;;5073406;28;20440;-73
2023/06/06 06:58:25;;;;;;;4.93;3.70;;;18.70;58.90;;;;;;5073290;28;20487;-73
2023/06/06 07:00:54;;;;;;;18.88;4.63;;;18.60;59.50;;;;;;5071916;28;20086;-74
2023/06/06 07:03:20;;;;;;;18.40;4.25;;;18.90;62.20;;;;;;5073230;28;20095;-73
2023/06/06 07:05:46;;;;;;;5.70;3.85;;;19.20;61.20;;;;;;5072885;28;20090;-74
2023/06/06 07:08:12;;;;;;;9.00;3.90;;;19.50;59.80;;;;;;5072856;28;20021;-74
2023/06/06 07:10:37;;;;;;;4.00;3.40;;;19.80;57.40;;;;;;5071313;28;20032;-76
2023/06/06 07:13:03;;;;;;;5.63;3.60;;;20.00;56.60;;;;;;5072624;28;20020;-76
2023/06/06 07:15:28;;;;;;;6.68;4.03;;;20.30;55.80;;;;;;5072808;28;20028;-76
2023/06/06 07:17:55;;;;;;;6.80;4.53;;;20.50;54.90;;;;;;5072888;28;20039;-75
2023/06/06 07:20:23;;;;;;;7.57;4.45;;;20.60;53.50;;;;;;5072580;28;20016;-76
2023/06/06 07:22:53;;;;;;;8.10;4.85;;;20.50;54.40;;;;;;5072907;28;20016;-75
2023/06/06 07:25:19;;;;;;;9.90;5.07;;;20.30;53.90;;;;;;5072568;28;20024;-75
2023/06/06 07:27:44;;;;;;;4.53;3.70;;;20.40;53.60;;;;;;5072761;28;20098;-74
2023/06/06 07:30:13;;;;;;;4.43;3.83;;;20.20;54.90;;;;;;5072638;28;20327;-74
2023/06/06 07:32:43;;;;;;;9.00;4.10;;;20.30;54.50;;;;;;5072878;28;20056;-74
2023/06/06 07:35:11;;;;;;;7.20;4.53;;;20.40;54.10;;;;;;5072674;28;20025;-75
2023/06/06 07:37:37;;;;;;;5.07;3.80;;;20.50;54.10;;;;;;5072714;28;20020;-75
2023/06/06 07:40:05;;;;;;;3.50;3.20;;;20.70;53.90;;;;;;5072411;28;20044;-75
2023/06/06 07:42:31;;;;;;;3.45;3.15;;;20.90;53.20;;;;;;5072631;28;20025;-74
2023/06/06 07:44:58;;;;;;;3.72;3.10;;;20.90;52.80;;;;;;5072560;28;20048;-75
2023/06/06 07:47:24;;;;;;;3.33;3.03;;;20.80;53.20;;;;;;5071161;28;20059;-75
2023/06/06 07:49:52;;;;;;;5.88;3.35;;;20.80;53.40;;;;;;5072505;28;20460;-74
2023/06/06 07:52:18;;;;;;;4.00;3.20;;;20.80;53.00;;;;;;5072499;28;20029;-74
2023/06/06 07:54:43;;;;;;;5.63;3.50;;;20.70;53.60;;;;;;5072406;28;20043;-75
2023/06/06 07:57:10;;;;;;;5.22;3.10;;;20.70;53.30;;;;;;5072204;28;20064;-76
2023/06/06 07:59:36;;;;;;;4.57;3.10;;;20.70;53.70;;;;;;5071897;28;20025;-75
2023/06/06 08:02:01;;;;;;;6.30;3.70;;;20.80;53.60;;;;;;5072095;28;20020;-75
2023/06/06 08:04:27;;;;;;;3.30;3.00;;;20.90;53.10;;;;;;5072365;28;20108;-75
2023/06/06 08:06:53;;;;;;;5.63;3.30;;;21.10;52.80;;;;;;5071543;28;20076;-75
2023/06/06 08:09:19;;;;;;;5.18;3.30;;;21.20;52.40;;;;;;5072372;28;20104;-75
2023/06/06 08:11:45;;;;;;;4.97;2.88;;;21.30;52.00;;;;;;5072584;28;20174;-75
2023/06/06 08:14:10;;;;;;;5.00;2.78;;;21.40;51.50;;;;;;5076422;28;20388;-75
2023/06/06 08:16:37;;;;;;;4.10;2.90;;;21.60;51.30;;;;;;5076029;28;20039;-75
2023/06/06 08:19:03;;;;;;;5.22;3.17;;;21.70;50.50;;;;;;5076087;28;20020;-75
2023/06/06 08:21:29;;;;;;;4.88;3.28;;;21.90;49.70;;;;;;5075585;28;20158;-75
2023/06/06 08:23:55;;;;;;;4.18;2.78;;;21.70;49.90;;;;;;5075892;28;20025;-74
2023/06/06 08:26:25;;;;;;;4.35;2.83;;;21.50;49.00;;;;;;5075418;28;20103;-76
2023/06/06 08:28:51;;;;;;;4.07;2.80;;;21.50;49.90;;;;;;5074545;28;20408;-75
2023/06/06 08:31:17;;;;;;;4.72;3.10;;;21.50;49.30;;;;;;5075809;28;20054;-74
2023/06/06 08:33:42;;;;;;;5.72;3.17;;;21.60;48.50;;;;;;5075934;28;20024;-75
2023/06/06 08:36:08;;;;;;;4.40;3.05;;;21.60;48.10;;;;;;5075874;28;20484;-75
2023/06/06 08:38:34;;;;;;;5.18;2.67;;;21.70;48.10;;;;;;5075593;28;20043;-75
2023/06/06 08:41:01;;;;;;;5.18;2.80;;;21.90;47.60;;;;;;5074842;28;20033;-75
2023/06/06 08:43:27;;;;;;;4.35;2.90;;;22.20;47.10;;;;;;5075343;28;20021;-75
2023/06/06 08:45:56;;;;;;;4.18;2.60;;;22.50;46.60;;;;;;5075531;28;20025;-75
2023/06/06 08:48:26;;;;;;;5.47;3.15;;;22.80;45.70;;;;;;5075467;28;20112;-75
2023/06/06 08:50:55;;;;;;;3.33;2.58;;;22.90;44.70;;;;;;5075620;28;20060;-75
2023/06/06 08:53:21;;;;;;;3.63;2.47;;;23.00;45.20;;;;;;5075535;28;20576;-76
2023/06/06 08:55:47;;;;;;;5.28;2.70;;;23.20;44.50;;;;;;5075064;28;20025;-76
2023/06/06 08:58:14;;;;;;;8.30;2.95;;;23.50;43.80;;;;;;5075212;28;20032;-75
2023/06/06 09:00:40;;;;;;;5.00;3.10;;;23.70;43.30;;;;;;5074671;28;20166;-76
2023/06/06 09:03:06;;;;;;;3.67;2.67;;;23.80;42.30;;;;;;5075227;28;20044;-76
2023/06/06 09:05:37;;;;;;;5.60;2.70;;;23.70;42.60;;;;;;5075206;28;20039;-76
2023/06/06 09:08:04;;;;;;;4.18;2.63;;;23.80;42.10;;;;;;5075295;28;20017;-75
2023/06/06 09:10:29;;;;;;;5.63;3.10;;;23.90;41.30;;;;;;5075404;28;20443;-75
2023/06/06 09:12:55;;;;;;;5.40;2.80;;;23.90;41.30;;;;;;5075330;28;20130;-75
2023/06/06 09:15:20;;;;;;;4.20;2.90;;;23.60;43.00;;;;;;5075122;28;20108;-74
2023/06/06 09:17:51;;;;;;;5.57;3.03;;;23.60;40.40;;;;;;5075263;28;20017;-75
2023/06/06 09:20:17;;;;;;;9.43;3.50;;;23.60;41.20;;;;;;5074813;28;20033;-74
2023/06/06 09:22:46;;;;;;;9.73;3.33;;;23.60;41.10;;;;;;5075113;28;20021;-75
2023/06/06 09:25:21;;;;;;;5.25;2.92;;;23.60;41.00;;;;;;5074125;28;20047;-74
2023/06/06 09:27:48;;;;;;;7.28;3.15;;;23.60;40.40;;;;;;5074987;28;20031;-75
2023/06/06 09:30:21;;;;;;;4.35;2.47;;;23.50;39.30;;;;;;5074844;28;20052;-74
2023/06/06 09:32:51;;;;;;;5.38;3.67;;;23.60;38.70;;;;;;5074718;28;20055;-74
2023/06/06 09:35:17;;;;;;;4.57;2.70;;;23.90;39.30;;;;;;5075103;28;20412;-74
2023/06/06 09:37:43;;;;;;;4.40;3.15;;;24.10;39.30;;;;;;5073267;28;20027;-74
2023/06/06 09:40:18;;;;;;;5.60;3.13;;;24.10;38.90;;;;;;5074716;28;20059;-74
2023/06/06 09:42:45;;;;;;;4.15;2.75;;;24.20;38.90;;;;;;5074568;28;20029;-75
2023/06/06 09:45:19;;;;;;;3.95;2.40;;;24.40;38.60;;;;;;5074700;28;20013;-76
2023/06/06 09:47:46;;;;;;;7.63;3.00;;;24.40;38.20;;;;;;5074516;28;20099;-75
2023/06/06 09:50:14;;;;;;;3.50;2.67;;;24.20;37.80;;;;;;5073202;28;20101;-76
2023/06/06 09:52:40;;;;;;;4.18;2.85;;;24.20;38.30;;;;;;5074357;28;20051;-74
2023/06/06 09:55:07;;;;;;;4.72;2.65;;;24.20;37.80;;;;;;5074766;28;20028;-74
2023/06/06 09:57:38;;;;;;;3.03;2.47;;;24.30;37.00;;;;;;5074344;28;20512;-74
2023/06/06 10:00:12;;;;;;;3.60;2.25;;;24.20;36.70;;;;;;5074103;28;20064;-74
2023/06/06 10:02:43;;;;;;;2.80;2.50;;;24.20;37.80;;;;;;5074423;28;20101;-75
2023/06/06 10:05:13;;;;;;;9.73;2.90;;;24.30;37.70;;;;;;5073941;28;20497;-77
2023/06/06 10:07:41;;;;;;;3.83;2.95;;;24.40;37.30;;;;;;5073038;28;20047;-78
2023/06/06 10:10:16;;;;;;;5.93;2.40;;;24.50;37.50;;;;;;5073818;28;20025;-75
2023/06/06 10:12:43;;;;;;;7.32;3.13;;;24.60;37.30;;;;;;5073626;28;20387;-74
2023/06/06 10:15:11;;;;;;;4.88;2.85;;;24.70;36.80;;;;;;5074243;28;20483;-74
2023/06/06 10:17:38;;;;;;;5.80;3.08;;;24.50;36.30;;;;;;5074095;28;20028;-74
2023/06/06 10:20:06;;;;;;;4.53;2.70;;;24.30;37.20;;;;;;5073549;28;20428;-74
2023/06/06 10:22:35;;;;;;;4.30;2.85;;;24.10;37.10;;;;;;5074113;28;20206;-74
2023/06/06 10:25:13;;;;;;;3.70;2.83;;;24.10;37.60;;;;;;5073798;28;20478;-77
2023/06/06 10:27:52;;;;;;;3.05;2.45;;;24.40;37.40;;;;;;5073783;28;20037;-79
2023/06/06 10:30:35;;;;;;;5.80;3.17;;;24.80;36.30;;;;;;5073874;28;20078;-75
2023/06/06 10:33:32;;;;;;;5.50;3.33;;;24.80;35.70;;;;;;5073761;28;20029;-76
2023/06/06 10:36:04;;;;;;;4.53;3.20;;;24.80;35.10;;;;;;5073805;28;20024;-74
2023/06/06 10:38:33;;;;;;;2.78;2.47;;;24.70;34.70;;;;;;5073262;28;20074;-75
2023/06/06 10:40:59;;;;;;;9.00;3.00;;;24.70;34.80;;;;;;5073042;28;20419;-76
2023/06/06 10:43:44;;;;;;;4.50;2.67;;;24.80;33.60;;;;;;5073506;28;20020;-74
2023/06/06 10:46:09;;;;;;;7.15;3.33;;;24.60;34.30;;;;;;5072062;28;20086;-74
2023/06/06 10:48:43;;;;;;;4.38;3.05;;;24.60;34.80;;;;;;5073391;28;20469;-74
2023/06/06 10:51:36;;;;;;;4.53;2.72;;;24.30;33.40;;;;;;5073637;28;20028;-75
2023/06/06 10:54:37;;;;;;;4.05;2.80;;;24.40;32.80;;;;;;5073421;28;20016;-75
2023/06/06 10:57:02;;;;;;;3.65;3.13;;;24.90;32.70;;;;;;5072780;28;20101;-74
2023/06/06 10:59:31;;;;;;;3.50;3.10;;;25.20;32.20;;;;;;5073008;28;20427;-75
2023/06/06 11:01:58;;;;;;;5.60;2.78;;;25.40;29.90;;;;;;5073086;28;20081;-76
2023/06/06 11:04:25;;;;;;;5.03;3.10;;;25.40;29.80;;;;;;5073052;28;20056;-75
2023/06/06 11:07:00;;;;;;;3.53;2.75;;;25.20;28.00;;;;;;5071825;28;20024;-75
2023/06/06 11:09:29;;;;;;;4.35;2.65;;;25.00;29.90;;;;;;5073005;28;20103;-77
2023/06/06 11:12:18;;;;;;;4.68;3.22;;;25.20;30.00;;;;;;5072854;28;20032;-75
2023/06/06 11:15:06;;;;;;;5.50;2.97;;;25.30;28.70;;;;;;5073006;28;20020;-76
2023/06/06 11:17:46;;;;;;;8.25;3.10;;;25.50;28.00;;;;;;5072786;28;20044;-75
2023/06/06 11:20:19;;;;;;;3.65;2.30;;;25.40;27.90;;;;;;5071533;28;20381;-77
2023/06/06 11:23:01;;;;;;;2.70;2.42;;;25.30;28.70;;;;;;5074114;28;20021;-75
2023/06/06 11:25:31;;;;;;;6.28;3.10;;;25.70;27.80;;;;;;5075450;28;20032;-75
2023/06/06 11:27:58;;;;;;;5.32;3.20;;;26.00;25.60;;;;;;5072703;28;20029;-74
2023/06/06 11:30:24;;;;;;;5.63;2.92;;;26.30;24.80;;;;;;5073275;28;20428;-75
2023/06/06 11:32:53;;;;;;;4.97;3.10;;;26.50;23.40;;;;;;5072680;28;20016;-76
2023/06/06 11:35:21;;;;;;;6.82;2.88;;;26.70;23.30;;;;;;5072988;28;20021;-74
2023/06/06 11:37:46;;;;;;;4.40;3.40;;;27.00;24.50;;;;;;5074314;28;20052;-76
2023/06/06 11:40:12;;;;;;;8.10;3.80;;;26.90;23.10;;;;;;5073045;28;20519;-75
2023/06/06 11:42:43;;;;;;;4.82;2.95;;;26.70;22.70;;;;;;5072872;28;20485;-78
2023/06/06 11:45:15;;;;;;;3.33;2.85;;;26.70;24.20;;;;;;5071385;28;20024;-74
2023/06/06 11:47:41;;;;;;;6.18;2.92;;;26.80;24.90;;;;;;5072155;28;20029;-74
2023/06/06 11:50:08;;;;;;;4.65;3.30;;;26.90;23.70;;;;;;5073081;28;20444;-77
2023/06/06 11:52:47;;;;;;;6.05;4.15;;;27.00;23.70;;;;;;5073409;28;20048;-76
2023/06/06 11:55:17;;;;;;;5.10;3.47;;;27.20;22.80;;;;;;5073140;28;20025;-80
2023/06/06 11:57:43;;;;;;;6.18;2.97;;;27.30;23.90;;;;;;5073060;28;20377;-76
2023/06/06 12:00:12;;;;;;;5.28;3.20;;;27.40;23.20;;;;;;5072940;28;20031;-78
2023/06/06 12:02:38;;;;;;;4.47;3.30;;;27.50;21.70;;;;;;5073003;28;20028;-80
2023/06/06 12:05:04;;;;;;;4.70;3.38;;;27.00;22.00;;;;;;5073593;28;20025;-80
2023/06/06 12:07:31;;;;;;;6.80;2.85;;;26.70;22.90;;;;;;5073396;28;20031;-85
2023/06/06 12:10:01;;;;;;;3.33;3.00;;;26.80;22.80;;;;;;5073187;28;20017;-84
2023/06/06 12:12:26;;;;;;;10.32;3.20;;;26.90;22.80;;;;;;5073706;28;20025;-82
2023/06/06 12:14:59;;;;;;;6.90;2.75;;;26.90;22.70;;;;;;5073695;28;20116;-85
2023/06/06 12:17:26;;;;;;;7.22;3.38;;;26.90;22.80;;;;;;5073519;28;20074;-84
2023/06/06 12:19:55;;;;;;;5.22;3.03;;;26.80;22.80;;;;;;5072849;28;20539;-86
2023/06/06 12:22:29;;;;;;;6.20;3.42;;;27.00;23.80;;;;;;5074573;28;20031;-82
2023/06/06 12:24:54;;;;;;;5.32;3.47;;;26.80;22.50;;;;;;5080127;28;20204;-77
2023/06/06 12:27:36;;;;;;;7.03;3.30;;;26.70;21.50;;;;;;5083601;28;20063;-80
2023/06/06 12:30:03;;;;;;;4.03;3.10;;;27.00;22.10;;;;;;5083050;28;20029;-82
2023/06/06 12:32:30;;;;;;;6.00;3.10;;;27.00;21.40;;;;;;5066803;28;20021;-88
2023/06/06 12:35:05;;;;;;;3.78;3.00;;;27.10;21.80;;;;;;5052970;28;20078;-84
2023/06/06 12:37:44;;;;;;;5.05;3.28;;;27.30;22.10;;;;;;5052960;28;20032;-80
2023/06/06 12:40:23;;;;;;;6.47;3.63;;;27.60;21.80;;;;;;5052445;28;20068;-83
2023/06/06 12:42:59;;;;;;;5.90;3.28;;;27.80;22.20;;;;;;5052364;28;20493;-84
2023/06/06 12:45:27;;;;;;;9.55;3.05;;;28.00;21.30;;;;;;5083239;28;20034;-82
2023/06/06 12:47:58;;;;;;;10.30;3.55;;;28.20;21.20;;;;;;5081828;28;20111;-79
2023/06/06 12:50:24;;;;;;;5.00;2.90;;;28.40;20.10;;;;;;5080742;28;20465;-80